createdAt,value
2022-09-25T00:00:27.896Z,100
2022-09-25T00:05:30.458Z,100
2022-09-25T00:10:33.163Z,100
2022-09-25T00:15:35.845Z,100
2022-09-25T00:25:41.168Z,100
2022-09-25T00:30:43.989Z,100
2022-09-25T00:35:46.557Z,100
2022-09-25T00:45:51.968Z,100
2022-09-25T00:50:54.432Z,100
2022-09-25T00:55:57.092Z,100
2022-09-25T01:01:00.036Z,100
2022-09-25T01:06:02.585Z,100
2022-09-25T01:11:05.319Z,100
2022-09-25T01:16:07.912Z,100
2022-09-25T01:26:15.701Z,100
2022-09-25T01:31:15.954Z,100
2022-09-25T01:36:18.460Z,100
2022-09-25T01:41:21.386Z,100
2022-09-25T01:46:24.071Z,100
2022-09-25T01:51:26.418Z,100
2022-09-25T01:56:28.846Z,100
2022-09-25T02:01:31.715Z,100
2022-09-25T02:06:34.246Z,100
2022-09-25T02:16:39.589Z,100
2022-09-25T02:21:42.123Z,100
2022-09-25T02:26:44.579Z,100
2022-09-25T02:31:47.341Z,100
2022-09-25T02:36:49.997Z,100
2022-09-25T02:46:55.437Z,100
2022-09-25T02:51:57.899Z,100
2022-09-25T02:57:03.883Z,100
2022-09-25T03:02:03.431Z,100
2022-09-25T03:07:06.000Z,100
2022-09-25T03:12:08.620Z,100
2022-09-25T03:17:11.315Z,100
2022-09-25T03:22:14.039Z,100
2022-09-25T03:27:16.793Z,100
2022-09-25T03:32:19.554Z,100
2022-09-25T03:37:22.082Z,100
2022-09-25T03:47:27.200Z,100
2022-09-25T03:52:29.781Z,100
2022-09-25T03:57:32.442Z,100
2022-09-25T04:02:35.264Z,100
2022-09-25T04:12:40.326Z,100
2022-09-25T04:17:42.944Z,100
2022-09-25T04:22:45.645Z,100
2022-09-25T04:27:51.093Z,100
2022-09-25T04:33:08.592Z,100
2022-09-25T04:38:11.791Z,100
2022-09-25T04:43:14.514Z,100
2022-09-25T04:48:17.096Z,100
2022-09-25T04:53:19.635Z,100
2022-09-25T05:03:27.879Z,100
2022-09-25T05:08:30.431Z,100
2022-09-25T05:13:35.769Z,100
2022-09-25T05:23:41.635Z,100
2022-09-25T05:33:47.070Z,100
2022-09-25T05:43:52.119Z,100
2022-09-25T05:48:54.632Z,100
2022-09-25T06:04:03.268Z,100
2022-09-25T06:09:05.957Z,100
2022-09-25T06:14:08.841Z,100
2022-09-25T06:19:11.671Z,100
2022-09-25T06:24:14.726Z,100
2022-09-25T06:29:17.577Z,100
2022-09-25T06:34:20.383Z,100
2022-09-25T06:39:23.035Z,100
2022-09-25T06:44:26.060Z,100
2022-09-25T06:49:28.670Z,100
2022-09-25T06:54:31.354Z,100
2022-09-25T06:59:34.249Z,100
2022-09-25T07:04:36.961Z,100
2022-09-25T07:14:46.254Z,100
2022-09-25T07:19:49.017Z,100
2022-09-25T07:24:51.652Z,100
2022-09-25T07:29:54.562Z,100
2022-09-25T07:34:57.334Z,100
2022-09-25T07:40:00.332Z,100
2022-09-25T07:45:02.915Z,100
2022-09-25T07:50:05.189Z,100
2022-09-25T07:55:07.769Z,100
2022-09-25T08:00:10.827Z,100
2022-09-25T08:10:16.496Z,100
2022-09-25T08:20:22.289Z,100
2022-09-25T08:35:30.335Z,100
2022-09-25T08:45:35.755Z,100
2022-09-25T08:50:38.442Z,100
2022-09-25T08:55:41.084Z,100
2022-09-25T09:00:43.819Z,100
2022-09-25T09:10:49.321Z,100
2022-09-25T09:15:52.060Z,100
2022-09-25T09:20:54.820Z,100
2022-09-25T09:25:57.614Z,100
2022-09-25T09:31:00.413Z,100
2022-09-25T09:36:02.990Z,100
2022-09-25T09:46:08.780Z,100
2022-09-25T09:51:11.498Z,100
2022-09-25T09:56:14.594Z,100
2022-09-25T10:01:36.992Z,100
2022-09-25T10:06:22.554Z,100
2022-09-25T10:11:22.803Z,100
2022-09-25T10:16:25.513Z,100
2022-09-25T10:21:28.381Z,100
2022-09-25T10:26:31.166Z,100
2022-09-25T10:31:33.835Z,100
2022-09-25T10:36:36.430Z,100
2022-09-25T10:41:39.199Z,100
2022-09-25T10:46:42.621Z,100
2022-09-25T10:51:45.134Z,100
2022-09-25T10:56:48.233Z,98.15234
2022-09-25T11:01:51.685Z,100
2022-09-25T11:06:53.992Z,100
2022-09-25T11:11:56.698Z,100
2022-09-25T11:16:59.407Z,100
2022-09-25T11:22:02.059Z,100
2022-09-25T11:32:07.217Z,100
2022-09-25T11:37:09.697Z,96.45605
2022-09-25T11:42:15.078Z,92.10156
2022-09-25T11:47:17.762Z,90.99023
2022-09-25T11:52:20.657Z,89.23633
2022-09-25T11:57:23.362Z,86.20898
2022-09-25T12:02:26.042Z,83.71875
2022-09-25T12:07:28.642Z,79.95801
2022-09-25T12:12:31.983Z,74.9541
2022-09-25T12:17:34.475Z,74.73145
2022-09-25T12:22:37.022Z,78.72656
2022-09-25T12:32:42.226Z,80.51758
2022-09-25T12:42:47.530Z,85.47656
2022-09-25T12:47:50.007Z,99.12402
2022-09-25T12:57:55.016Z,100
2022-09-25T13:02:57.793Z,100
2022-09-25T13:08:00.484Z,100
2022-09-25T13:13:03.141Z,100
2022-09-25T13:18:05.905Z,100
2022-09-25T13:28:10.863Z,100
2022-09-25T13:33:13.644Z,100
2022-09-25T13:38:16.143Z,100
2022-09-25T13:43:18.859Z,100
2022-09-25T13:48:21.549Z,100
2022-09-25T13:59:22.478Z,100
2022-09-25T14:04:25.145Z,100
2022-09-25T14:09:27.592Z,100
2022-09-25T14:14:30.360Z,100
2022-09-25T14:19:33.237Z,100
2022-09-25T14:24:35.836Z,100
2022-09-25T14:29:39.444Z,100
2022-09-25T14:34:42.089Z,100
2022-09-25T14:44:47.512Z,100
2022-09-25T14:49:50.266Z,100
2022-09-25T14:54:52.768Z,100
2022-09-25T14:59:55.247Z,100
2022-09-25T15:04:57.981Z,100
2022-09-25T15:10:00.613Z,100
2022-09-25T15:15:03.255Z,100
2022-09-25T15:20:05.936Z,100
2022-09-25T15:25:08.399Z,100
2022-09-25T15:30:10.812Z,100
2022-09-25T15:35:13.542Z,100
2022-09-25T15:40:16.835Z,100
2022-09-25T15:45:19.010Z,100
2022-09-25T15:50:21.919Z,100
2022-09-25T15:55:24.531Z,100
2022-09-25T16:00:27.184Z,100
2022-09-25T16:05:29.912Z,100
2022-09-25T16:10:32.481Z,100
2022-09-25T16:15:34.966Z,100
2022-09-25T16:20:37.489Z,100
2022-09-25T16:25:40.050Z,100
2022-09-25T16:30:42.678Z,100
2022-09-25T16:36:09.253Z,100
2022-09-25T16:40:48.048Z,100
2022-09-25T16:45:50.505Z,100
2022-09-25T16:50:53.150Z,100
2022-09-25T16:55:55.642Z,100
2022-09-25T17:00:58.610Z,100
2022-09-25T17:06:01.145Z,100
2022-09-25T17:11:03.725Z,100
2022-09-25T17:16:06.462Z,100
2022-09-25T17:21:09.280Z,100
2022-09-25T17:26:11.971Z,100
2022-09-25T17:31:14.838Z,100
2022-09-25T17:36:17.352Z,100
2022-09-25T17:41:20.047Z,100
2022-09-25T17:46:22.778Z,100
2022-09-25T17:51:25.276Z,100
2022-09-25T17:56:28.795Z,100
2022-09-25T18:01:34.152Z,100
2022-09-25T18:11:39.412Z,100
2022-09-25T18:16:42.249Z,100
2022-09-25T18:21:44.871Z,100
2022-09-25T18:26:47.640Z,100
2022-09-25T18:31:55.881Z,100
2022-09-25T18:36:58.774Z,100
2022-09-25T18:42:01.338Z,100
2022-09-25T18:47:03.807Z,100
2022-09-25T18:52:06.665Z,100
2022-09-25T18:57:09.340Z,100
2022-09-25T19:02:12.131Z,100
2022-09-25T19:12:18.391Z,100
2022-09-25T19:17:21.108Z,100
2022-09-25T19:22:24.117Z,100
2022-09-25T19:32:29.423Z,100
2022-09-25T19:37:41.182Z,100
2022-09-25T19:42:43.705Z,100
2022-09-25T19:47:46.653Z,100
2022-09-25T19:52:51.013Z,100
2022-09-25T19:57:51.473Z,100
2022-09-25T20:02:54.257Z,100
2022-09-25T20:07:56.703Z,100
2022-09-25T20:12:59.465Z,100
2022-09-25T20:23:04.880Z,100
2022-09-25T20:28:07.620Z,100
2022-09-25T20:33:10.416Z,100
2022-09-25T20:43:21.574Z,100
2022-09-25T20:48:24.264Z,100
2022-09-25T20:53:26.805Z,100
2022-09-25T20:58:29.465Z,100
2022-09-25T21:03:32.238Z,100
2022-09-25T21:13:37.755Z,100
2022-09-25T21:18:40.451Z,100
2022-09-25T21:23:43.204Z,100
2022-09-25T21:28:45.909Z,100
2022-09-25T21:33:48.582Z,100
2022-09-25T21:38:51.342Z,100
2022-09-25T21:48:56.775Z,100
2022-09-25T21:53:59.490Z,100
2022-09-25T22:04:04.746Z,100
2022-09-25T22:09:07.457Z,100
2022-09-25T22:14:14.907Z,100
2022-09-25T22:19:12.744Z,100
2022-09-25T22:24:15.058Z,100
2022-09-25T22:49:28.286Z,100
2022-09-25T22:54:30.698Z,100
2022-09-25T23:04:36.252Z,100
2022-09-25T23:09:39.024Z,100
2022-09-25T23:14:41.625Z,100
2022-09-25T23:19:44.373Z,100
2022-09-25T23:24:49.630Z,100
2022-09-25T23:29:52.376Z,100
2022-09-25T23:34:55.182Z,100
2022-09-25T23:39:57.735Z,100
2022-09-25T23:45:00.424Z,100
2022-09-25T23:50:04.717Z,100
